createdAt,value
2017-08-15T00:00:27.406Z,1018.65
2017-08-15T00:01:08.298Z,1018.67
2017-08-15T00:01:49.197Z,1018.68
2017-08-15T00:02:30.087Z,1018.65
2017-08-15T00:03:10.976Z,1018.64
2017-08-15T00:03:51.857Z,1018.66
2017-08-15T00:04:32.777Z,1018.63
2017-08-15T00:05:13.665Z,1018.63
2017-08-15T00:05:54.544Z,1018.66
2017-08-15T00:06:35.436Z,1018.64
2017-08-15T00:07:16.330Z,1018.66
2017-08-15T00:07:57.204Z,1018.66
2017-08-15T00:08:38.126Z,1018.63
2017-08-15T00:09:19.015Z,1018.65
2017-08-15T00:09:59.907Z,1018.63
2017-08-15T00:10:40.783Z,1018.63
2017-08-15T00:11:21.678Z,1018.63
2017-08-15T00:12:02.564Z,1018.61
2017-08-15T00:12:43.464Z,1018.62
2017-08-15T00:14:21.911Z,1018.6
2017-08-15T00:15:02.798Z,1018.58
2017-08-15T00:15:43.694Z,1018.61
2017-08-15T00:16:24.582Z,1018.57
2017-08-15T00:17:05.466Z,1018.53
2017-08-15T00:17:46.354Z,1018.53
2017-08-15T00:18:27.243Z,1018.57
2017-08-15T00:19:08.134Z,1018.56
2017-08-15T00:19:49.016Z,1018.54
2017-08-15T00:20:29.908Z,1018.59
2017-08-15T00:21:10.787Z,1018.56
2017-08-15T00:21:51.678Z,1018.58
2017-08-15T00:22:32.558Z,1018.56
2017-08-15T00:23:13.445Z,1018.57
2017-08-15T00:23:54.325Z,1018.55
2017-08-15T00:24:35.212Z,1018.55
2017-08-15T00:25:16.108Z,1018.54
2017-08-15T00:25:56.999Z,1018.54
2017-08-15T00:26:37.975Z,1018.55
2017-08-15T00:27:18.873Z,1018.51
2017-08-15T00:27:59.775Z,1018.57
2017-08-15T00:28:40.675Z,1018.52
2017-08-15T00:29:21.543Z,1018.5
2017-08-15T00:30:02.423Z,1018.51
2017-08-15T00:30:43.400Z,1018.5
2017-08-15T00:31:24.250Z,1018.49
2017-08-15T00:32:05.134Z,1018.47
2017-08-15T00:32:46.021Z,1018.47
2017-08-15T00:33:26.910Z,1018.45
2017-08-15T00:34:07.802Z,1018.47
2017-08-15T00:34:48.683Z,1018.41
2017-08-15T00:35:29.573Z,1018.47
2017-08-15T00:36:10.460Z,1018.47
2017-08-15T00:36:51.343Z,1018.45
2017-08-15T00:37:32.243Z,1018.43
2017-08-15T00:38:13.149Z,1018.44
2017-08-15T00:38:54.032Z,1018.43
2017-08-15T00:39:34.925Z,1018.38
2017-08-15T00:40:15.818Z,1018.39
2017-08-15T00:40:56.695Z,1018.41
2017-08-15T00:41:37.584Z,1018.36
2017-08-15T00:42:18.468Z,1018.37
2017-08-15T00:42:59.366Z,1018.38
2017-08-15T00:43:40.247Z,1018.38
2017-08-15T00:44:21.127Z,1018.4
2017-08-15T00:45:02.013Z,1018.36
2017-08-15T00:45:42.903Z,1018.38
2017-08-15T00:46:23.808Z,1018.38
2017-08-15T00:47:04.711Z,1018.34
2017-08-15T00:47:45.596Z,1018.35
2017-08-15T00:48:26.483Z,1018.37
2017-08-15T00:49:07.378Z,1018.39
2017-08-15T00:49:48.262Z,1018.37
2017-08-15T00:50:29.151Z,1018.36
2017-08-15T00:51:10.032Z,1018.39
2017-08-15T00:51:50.921Z,1018.33
2017-08-15T00:52:31.794Z,1018.38
2017-08-15T00:53:12.686Z,1018.34
2017-08-15T00:53:53.585Z,1018.35
2017-08-15T00:54:34.464Z,1018.35
2017-08-15T00:55:15.351Z,1018.37
2017-08-15T00:55:56.246Z,1018.32
2017-08-15T00:56:37.140Z,1018.3
2017-08-15T00:57:18.018Z,1018.32
2017-08-15T00:57:58.916Z,1018.32
2017-08-15T00:58:39.806Z,1018.36
2017-08-15T00:59:20.699Z,1018.33
2017-08-15T01:00:01.597Z,1018.32
2017-08-15T01:00:42.485Z,1018.29
2017-08-15T01:01:23.371Z,1018.31
2017-08-15T01:02:04.275Z,1018.27
2017-08-15T01:02:45.155Z,1018.29
2017-08-15T01:03:26.040Z,1018.28
2017-08-15T01:04:06.932Z,1018.28
2017-08-15T01:04:47.833Z,1018.27
2017-08-15T01:05:28.739Z,1018.28
2017-08-15T01:06:09.620Z,1018.27
2017-08-15T01:06:50.518Z,1018.26
2017-08-15T01:07:31.405Z,1018.22
2017-08-15T01:08:12.289Z,1018.23
2017-08-15T01:08:53.211Z,1018.21
2017-08-15T01:09:34.066Z,1018.21
2017-08-15T01:10:14.959Z,1018.24
2017-08-15T01:10:55.849Z,1018.22
2017-08-15T01:11:36.730Z,1018.24
2017-08-15T01:12:17.623Z,1018.21
2017-08-15T01:12:58.507Z,1018.25
2017-08-15T01:13:39.400Z,1018.19
2017-08-15T01:14:20.275Z,1018.18
2017-08-15T01:15:01.196Z,1018.22
2017-08-15T01:15:42.038Z,1018.21
2017-08-15T01:16:22.930Z,1018.22
2017-08-15T01:17:03.810Z,1018.25
2017-08-15T01:17:44.705Z,1018.25
2017-08-15T01:18:25.573Z,1018.26
2017-08-15T01:19:06.460Z,1018.22
2017-08-15T01:19:47.360Z,1018.23
2017-08-15T01:20:28.251Z,1018.22
2017-08-15T01:21:09.139Z,1018.17
2017-08-15T01:21:50.021Z,1018.2
2017-08-15T01:22:30.928Z,1018.19
2017-08-15T01:23:11.812Z,1018.2
2017-08-15T01:23:52.681Z,1018.16
2017-08-15T01:24:33.569Z,1018.19
2017-08-15T01:25:14.470Z,1018.2
2017-08-15T01:25:55.350Z,1018.16
2017-08-15T01:26:36.248Z,1018.16
2017-08-15T01:27:17.131Z,1018.15
2017-08-15T01:27:58.007Z,1018.16
2017-08-15T01:28:38.891Z,1018.16
2017-08-15T01:29:19.777Z,1018.15
2017-08-15T01:30:00.671Z,1018.13
2017-08-15T01:30:41.564Z,1018.1
2017-08-15T01:31:22.453Z,1018.08
2017-08-15T01:32:03.340Z,1018.04
2017-08-15T01:32:44.231Z,1018.06
2017-08-15T01:33:25.107Z,1018.03
2017-08-15T01:34:05.990Z,1018.06
2017-08-15T01:34:46.879Z,1018.05
2017-08-15T01:35:27.769Z,1017.98
2017-08-15T01:36:08.647Z,1018.01
2017-08-15T01:36:49.552Z,1018.03
2017-08-15T01:37:30.437Z,1018
2017-08-15T01:38:11.310Z,1018.03
2017-08-15T01:38:52.190Z,1018.02
2017-08-15T01:39:33.085Z,1017.98
2017-08-15T01:40:13.974Z,1018
2017-08-15T01:40:54.886Z,1018.02
2017-08-15T01:41:35.766Z,1018.01
2017-08-15T01:42:16.671Z,1017.97
2017-08-15T01:42:57.548Z,1017.98
2017-08-15T01:43:38.435Z,1017.99
2017-08-15T01:44:19.340Z,1017.96
2017-08-15T01:45:00.190Z,1017.97
2017-08-15T01:45:41.089Z,1018
2017-08-15T01:46:21.973Z,1017.92
2017-08-15T01:47:02.860Z,1017.93
2017-08-15T01:47:43.757Z,1017.98
2017-08-15T01:48:24.648Z,1017.96
2017-08-15T01:49:05.531Z,1017.99
2017-08-15T01:49:46.426Z,1017.94
2017-08-15T01:50:27.324Z,1017.97
2017-08-15T01:51:08.190Z,1017.95
2017-08-15T01:51:49.076Z,1017.94
2017-08-15T01:52:29.972Z,1017.97
2017-08-15T01:53:10.859Z,1017.96
2017-08-15T01:53:51.740Z,1017.93
2017-08-15T01:54:32.614Z,1017.97
2017-08-15T01:55:13.507Z,1017.94
2017-08-15T01:55:54.399Z,1017.97
2017-08-15T01:56:35.281Z,1017.95
2017-08-15T01:57:16.214Z,1017.97
2017-08-15T01:57:57.098Z,1018
2017-08-15T01:58:38.011Z,1018
2017-08-15T01:59:18.890Z,1017.95
2017-08-15T01:59:59.781Z,1017.94
2017-08-15T02:00:40.668Z,1017.99
2017-08-15T02:01:21.566Z,1017.97
2017-08-15T02:02:02.451Z,1017.96
2017-08-15T02:02:43.343Z,1017.93
2017-08-15T02:03:24.242Z,1017.94
2017-08-15T02:04:05.115Z,1017.97
2017-08-15T02:04:46.005Z,1017.99
2017-08-15T02:05:26.891Z,1017.95
2017-08-15T02:06:07.776Z,1018.01
2017-08-15T02:06:48.660Z,1017.97
2017-08-15T02:07:29.551Z,1018
2017-08-15T02:08:10.442Z,1017.98
2017-08-15T02:08:51.335Z,1017.98
2017-08-15T02:09:32.209Z,1017.99
2017-08-15T02:10:13.112Z,1017.99
2017-08-15T02:10:53.991Z,1017.98
2017-08-15T02:11:34.866Z,1017.95
2017-08-15T02:12:15.763Z,1017.95
2017-08-15T02:12:56.653Z,1017.99
2017-08-15T02:13:37.543Z,1017.99
2017-08-15T02:14:18.433Z,1018
2017-08-15T02:14:59.326Z,1017.98
2017-08-15T02:15:40.217Z,1017.97
2017-08-15T02:16:21.070Z,1017.95
2017-08-15T02:17:01.948Z,1017.94
2017-08-15T02:17:42.845Z,1017.93
2017-08-15T02:18:23.753Z,1017.94
2017-08-15T02:19:04.611Z,1017.97
2017-08-15T02:19:45.507Z,1017.93
2017-08-15T02:20:26.397Z,1017.94
2017-08-15T02:21:07.276Z,1017.95
2017-08-15T02:21:48.161Z,1017.93
2017-08-15T02:22:29.041Z,1017.92
2017-08-15T02:23:09.937Z,1017.93
2017-08-15T02:23:50.826Z,1017.86
2017-08-15T02:24:31.721Z,1017.86
2017-08-15T02:25:12.609Z,1017.86
2017-08-15T02:25:53.499Z,1017.83
2017-08-15T02:26:34.389Z,1017.82
2017-08-15T02:27:15.309Z,1017.83
2017-08-15T02:27:56.165Z,1017.8
2017-08-15T02:28:37.078Z,1017.81
2017-08-15T02:29:17.986Z,1017.81
2017-08-15T02:29:58.869Z,1017.79
2017-08-15T02:30:39.747Z,1017.8
2017-08-15T02:31:20.639Z,1017.74
2017-08-15T02:32:01.515Z,1017.76
2017-08-15T02:32:42.400Z,1017.77
2017-08-15T02:33:23.313Z,1017.77
2017-08-15T02:34:04.189Z,1017.76
2017-08-15T02:34:45.074Z,1017.76
2017-08-15T02:35:25.952Z,1017.77
2017-08-15T02:36:06.841Z,1017.75
2017-08-15T02:36:47.717Z,1017.77
2017-08-15T02:37:28.607Z,1017.77
2017-08-15T02:38:09.472Z,1017.76
2017-08-15T02:38:50.364Z,1017.72
2017-08-15T02:39:31.264Z,1017.77
2017-08-15T02:40:12.161Z,1017.77
2017-08-15T02:40:53.055Z,1017.73
2017-08-15T02:41:33.948Z,1017.74
2017-08-15T02:42:14.831Z,1017.76
2017-08-15T02:42:55.727Z,1017.76
2017-08-15T02:43:36.609Z,1017.75
2017-08-15T02:44:17.491Z,1017.72
2017-08-15T02:44:58.395Z,1017.72
2017-08-15T02:45:39.304Z,1017.72
2017-08-15T02:46:20.198Z,1017.75
2017-08-15T02:47:01.092Z,1017.71
2017-08-15T02:47:41.972Z,1017.72
2017-08-15T02:48:22.854Z,1017.74
2017-08-15T02:49:03.748Z,1017.74
2017-08-15T02:49:44.639Z,1017.75
2017-08-15T02:50:25.507Z,1017.73
2017-08-15T02:51:06.442Z,1017.73
2017-08-15T02:51:47.321Z,1017.74
2017-08-15T02:52:28.209Z,1017.72
2017-08-15T02:53:09.102Z,1017.7
2017-08-15T02:53:49.995Z,1017.71
2017-08-15T02:54:30.860Z,1017.71
2017-08-15T02:55:11.758Z,1017.71
2017-08-15T02:55:52.675Z,1017.75
2017-08-15T02:56:33.564Z,1017.69
2017-08-15T02:57:14.476Z,1017.67
2017-08-15T02:57:55.348Z,1017.71
2017-08-15T02:58:36.228Z,1017.69
2017-08-15T02:59:17.119Z,1017.65
2017-08-15T02:59:58.012Z,1017.66
2017-08-15T03:00:38.902Z,1017.67
2017-08-15T03:01:19.798Z,1017.65
2017-08-15T03:02:00.691Z,1017.65
2017-08-15T03:02:41.571Z,1017.63
2017-08-15T03:03:22.461Z,1017.64
2017-08-15T03:04:03.359Z,1017.63
2017-08-15T03:04:44.244Z,1017.64
2017-08-15T03:05:25.138Z,1017.62
2017-08-15T03:06:06.024Z,1017.6
2017-08-15T03:06:46.909Z,1017.63
2017-08-15T03:07:27.789Z,1017.61
2017-08-15T03:08:08.682Z,1017.62
2017-08-15T03:08:49.573Z,1017.6
2017-08-15T03:09:30.462Z,1017.61
2017-08-15T03:10:11.371Z,1017.59
2017-08-15T03:10:52.249Z,1017.61
2017-08-15T03:11:33.133Z,1017.59
2017-08-15T03:12:14.020Z,1017.56
2017-08-15T03:12:54.907Z,1017.57
2017-08-15T03:13:35.801Z,1017.55
2017-08-15T03:14:16.689Z,1017.58
2017-08-15T03:14:57.584Z,1017.57
2017-08-15T03:15:38.472Z,1017.6
2017-08-15T03:16:19.354Z,1017.61
2017-08-15T03:17:00.239Z,1017.63
2017-08-15T03:17:41.138Z,1017.59
2017-08-15T03:18:22.024Z,1017.59
2017-08-15T03:19:02.899Z,1017.59
2017-08-15T03:19:43.815Z,1017.59
2017-08-15T03:20:24.688Z,1017.58
2017-08-15T03:21:05.588Z,1017.61
2017-08-15T03:21:46.486Z,1017.58
2017-08-15T03:22:27.349Z,1017.57
2017-08-15T03:23:08.230Z,1017.55
2017-08-15T03:23:49.127Z,1017.55
2017-08-15T03:24:30.023Z,1017.55
2017-08-15T03:25:10.901Z,1017.58
2017-08-15T03:25:51.760Z,1017.56
2017-08-15T03:26:32.656Z,1017.55
2017-08-15T03:27:13.553Z,1017.54
2017-08-15T03:27:54.450Z,1017.54
2017-08-15T03:28:35.340Z,1017.58
2017-08-15T03:29:16.239Z,1017.57
2017-08-15T03:29:57.111Z,1017.54
2017-08-15T03:30:38.004Z,1017.59
2017-08-15T03:31:18.907Z,1017.58
2017-08-15T03:31:59.795Z,1017.61
2017-08-15T03:32:40.672Z,1017.58
2017-08-15T03:33:21.577Z,1017.57
2017-08-15T03:34:02.465Z,1017.56
2017-08-15T03:34:43.373Z,1017.59
2017-08-15T03:35:24.257Z,1017.55
2017-08-15T03:36:05.167Z,1017.58
2017-08-15T03:36:46.072Z,1017.52
2017-08-15T03:37:26.936Z,1017.56
2017-08-15T03:38:07.827Z,1017.54
2017-08-15T03:38:48.717Z,1017.54
2017-08-15T03:39:29.605Z,1017.52
2017-08-15T03:40:10.492Z,1017.53
2017-08-15T03:40:51.390Z,1017.54
2017-08-15T03:41:32.274Z,1017.56
2017-08-15T03:42:13.160Z,1017.54
2017-08-15T03:42:54.043Z,1017.57
2017-08-15T03:43:34.939Z,1017.58
2017-08-15T03:44:15.821Z,1017.6
2017-08-15T03:44:56.697Z,1017.55
2017-08-15T03:45:37.587Z,1017.56
2017-08-15T03:46:18.488Z,1017.55
2017-08-15T03:46:59.375Z,1017.56
2017-08-15T03:47:40.277Z,1017.55
2017-08-15T03:48:21.174Z,1017.58
2017-08-15T03:49:02.061Z,1017.56
2017-08-15T03:49:42.963Z,1017.58
2017-08-15T03:50:23.852Z,1017.56
2017-08-15T03:51:04.738Z,1017.53
2017-08-15T03:51:45.682Z,1017.58
2017-08-15T03:52:26.564Z,1017.59
2017-08-15T03:53:07.448Z,1017.59
2017-08-15T03:53:48.334Z,1017.56
2017-08-15T03:54:29.219Z,1017.57
2017-08-15T03:55:10.108Z,1017.61
2017-08-15T03:55:51.010Z,1017.62
2017-08-15T03:56:31.894Z,1017.65
2017-08-15T03:57:12.770Z,1017.63
2017-08-15T03:57:53.671Z,1017.62
2017-08-15T03:58:34.550Z,1017.62
2017-08-15T03:59:15.441Z,1017.6
2017-08-15T03:59:56.339Z,1017.62
2017-08-15T04:00:37.209Z,1017.61
2017-08-15T04:01:18.094Z,1017.59
2017-08-15T04:01:58.963Z,1017.58
2017-08-15T04:02:39.841Z,1017.56
2017-08-15T04:03:20.733Z,1017.56
2017-08-15T04:04:01.623Z,1017.54
2017-08-15T04:04:42.506Z,1017.53
2017-08-15T04:05:23.391Z,1017.55
2017-08-15T04:06:04.275Z,1017.51
2017-08-15T04:06:45.163Z,1017.51
2017-08-15T04:07:26.043Z,1017.53
2017-08-15T04:08:06.930Z,1017.51
2017-08-15T04:08:47.821Z,1017.52
2017-08-15T04:09:28.722Z,1017.56
2017-08-15T04:10:09.607Z,1017.53
2017-08-15T04:10:50.503Z,1017.51
2017-08-15T04:11:31.389Z,1017.54
2017-08-15T04:12:12.275Z,1017.53
2017-08-15T04:12:53.156Z,1017.55
2017-08-15T04:13:34.041Z,1017.56
2017-08-15T04:14:14.957Z,1017.58
2017-08-15T04:14:55.848Z,1017.61
2017-08-15T04:15:36.713Z,1017.62
2017-08-15T04:16:17.604Z,1017.6
2017-08-15T04:16:58.482Z,1017.59
2017-08-15T04:17:39.364Z,1017.61
2017-08-15T04:18:20.245Z,1017.59
2017-08-15T04:19:01.152Z,1017.62
2017-08-15T04:19:42.048Z,1017.58
2017-08-15T04:20:22.930Z,1017.6
2017-08-15T04:21:03.819Z,1017.61
2017-08-15T04:21:44.701Z,1017.63
2017-08-15T04:22:25.574Z,1017.61
2017-08-15T04:23:06.465Z,1017.62
2017-08-15T04:23:47.342Z,1017.64
2017-08-15T04:24:28.235Z,1017.67
2017-08-15T04:25:09.114Z,1017.63
2017-08-15T04:25:49.997Z,1017.68
2017-08-15T04:26:30.898Z,1017.66
2017-08-15T04:27:11.809Z,1017.66
2017-08-15T04:27:52.672Z,1017.71
2017-08-15T04:28:33.551Z,1017.7
2017-08-15T04:29:14.435Z,1017.69
2017-08-15T04:29:55.325Z,1017.67
2017-08-15T04:30:36.220Z,1017.7
2017-08-15T04:31:17.114Z,1017.68
2017-08-15T04:31:57.993Z,1017.68
2017-08-15T04:32:38.878Z,1017.66
2017-08-15T04:33:19.765Z,1017.68
2017-08-15T04:34:00.650Z,1017.7
2017-08-15T04:34:41.540Z,1017.67
2017-08-15T04:35:22.429Z,1017.74
2017-08-15T04:36:03.327Z,1017.69
2017-08-15T04:36:44.198Z,1017.73
2017-08-15T04:37:25.087Z,1017.71
2017-08-15T04:38:05.969Z,1017.69
2017-08-15T04:38:46.865Z,1017.72
2017-08-15T04:39:27.756Z,1017.72
2017-08-15T04:40:08.637Z,1017.7
2017-08-15T04:40:49.536Z,1017.68
2017-08-15T04:41:30.426Z,1017.68
2017-08-15T04:42:11.348Z,1017.72
2017-08-15T04:42:52.220Z,1017.66
2017-08-15T04:43:33.124Z,1017.66
2017-08-15T04:44:14.037Z,1017.67
2017-08-15T04:44:54.893Z,1017.65
2017-08-15T04:45:35.779Z,1017.68
2017-08-15T04:46:16.663Z,1017.64
2017-08-15T04:46:57.547Z,1017.67
2017-08-15T04:47:38.480Z,1017.69
2017-08-15T04:48:19.365Z,1017.66
2017-08-15T04:49:00.247Z,1017.67
2017-08-15T04:49:41.131Z,1017.64
2017-08-15T04:50:22.061Z,1017.69
2017-08-15T04:51:02.930Z,1017.64
2017-08-15T04:51:43.805Z,1017.65
2017-08-15T04:52:24.718Z,1017.63
2017-08-15T04:53:05.632Z,1017.62
2017-08-15T04:53:46.519Z,1017.62
2017-08-15T04:54:27.412Z,1017.59
2017-08-15T04:55:08.301Z,1017.59
2017-08-15T04:55:49.186Z,1017.59
2017-08-15T04:56:30.067Z,1017.6
2017-08-15T04:57:10.955Z,1017.54
2017-08-15T04:57:51.840Z,1017.56
2017-08-15T04:58:32.746Z,1017.56
2017-08-15T04:59:13.633Z,1017.6
2017-08-15T04:59:54.513Z,1017.61
2017-08-15T05:00:35.402Z,1017.59
2017-08-15T05:01:16.335Z,1017.62
2017-08-15T05:01:57.221Z,1017.61
2017-08-15T05:02:38.125Z,1017.65
2017-08-15T05:03:19.000Z,1017.63
2017-08-15T05:03:59.884Z,1017.62
2017-08-15T05:04:40.797Z,1017.64
2017-08-15T05:06:19.287Z,1017.61
2017-08-15T05:07:00.167Z,1017.63
2017-08-15T05:07:41.056Z,1017.64
2017-08-15T05:08:21.941Z,1017.62
2017-08-15T05:09:02.834Z,1017.62
2017-08-15T05:09:43.722Z,1017.64
2017-08-15T05:10:24.584Z,1017.61
2017-08-15T05:11:05.470Z,1017.58
2017-08-15T05:11:46.376Z,1017.58
2017-08-15T05:12:27.249Z,1017.6
2017-08-15T05:13:08.120Z,1017.59
2017-08-15T05:13:49.009Z,1017.59
2017-08-15T05:14:29.910Z,1017.55
2017-08-15T05:15:10.766Z,1017.59
2017-08-15T05:15:51.673Z,1017.56
2017-08-15T05:16:32.581Z,1017.58
2017-08-15T05:17:13.461Z,1017.6
2017-08-15T05:17:54.326Z,1017.58
2017-08-15T05:18:35.232Z,1017.62
2017-08-15T05:19:16.120Z,1017.59
2017-08-15T05:19:57.008Z,1017.58
2017-08-15T05:20:37.889Z,1017.59
2017-08-15T05:21:18.782Z,1017.56
2017-08-15T05:21:59.673Z,1017.56
2017-08-15T05:22:40.565Z,1017.56
2017-08-15T05:23:21.462Z,1017.55
2017-08-15T05:24:02.348Z,1017.54
2017-08-15T05:24:43.226Z,1017.55
2017-08-15T05:25:24.117Z,1017.57
2017-08-15T05:26:05.027Z,1017.56
2017-08-15T05:26:45.906Z,1017.54
2017-08-15T05:27:26.792Z,1017.58
2017-08-15T05:28:07.679Z,1017.59
2017-08-15T05:28:48.562Z,1017.59
2017-08-15T05:29:29.450Z,1017.58
2017-08-15T05:30:10.342Z,1017.58
2017-08-15T05:30:51.231Z,1017.59
2017-08-15T05:31:32.111Z,1017.61
2017-08-15T05:32:12.995Z,1017.63
2017-08-15T05:32:53.881Z,1017.63
2017-08-15T05:33:34.767Z,1017.64
2017-08-15T05:34:15.643Z,1017.61
2017-08-15T05:34:56.536Z,1017.6
2017-08-15T05:35:37.422Z,1017.54
2017-08-15T05:36:18.370Z,1017.64
2017-08-15T05:36:59.259Z,1017.61
2017-08-15T05:37:40.135Z,1017.61
2017-08-15T05:38:21.016Z,1017.6
2017-08-15T05:39:01.905Z,1017.62
2017-08-15T05:39:42.793Z,1017.61
2017-08-15T05:40:23.660Z,1017.66
2017-08-15T05:41:04.551Z,1017.61
2017-08-15T05:41:45.448Z,1017.62
2017-08-15T05:42:26.330Z,1017.64
2017-08-15T05:43:07.220Z,1017.6
2017-08-15T05:43:48.113Z,1017.64
2017-08-15T05:44:29.002Z,1017.57
2017-08-15T05:45:09.881Z,1017.6
2017-08-15T05:45:50.773Z,1017.58
2017-08-15T05:46:31.668Z,1017.61
2017-08-15T05:47:12.541Z,1017.62
2017-08-15T05:47:53.434Z,1017.58
2017-08-15T05:48:34.323Z,1017.61
2017-08-15T05:49:15.210Z,1017.59
2017-08-15T05:49:56.088Z,1017.6
2017-08-15T05:50:36.976Z,1017.62
2017-08-15T05:51:17.869Z,1017.61
2017-08-15T05:51:58.749Z,1017.64
2017-08-15T05:52:39.634Z,1017.62
2017-08-15T05:53:20.534Z,1017.63
2017-08-15T05:54:01.424Z,1017.66
2017-08-15T05:54:42.314Z,1017.67
2017-08-15T05:55:23.199Z,1017.67
2017-08-15T05:56:04.084Z,1017.7
2017-08-15T05:56:44.962Z,1017.69
2017-08-15T05:57:25.826Z,1017.65
2017-08-15T05:58:06.786Z,1017.7
2017-08-15T05:58:47.632Z,1017.69
2017-08-15T05:59:28.518Z,1017.68
2017-08-15T06:00:09.431Z,1017.64
2017-08-15T06:00:50.305Z,1017.65
2017-08-15T06:01:31.187Z,1017.59
2017-08-15T06:02:12.058Z,1017.62
2017-08-15T06:02:52.968Z,1017.59
2017-08-15T06:03:33.838Z,1017.56
2017-08-15T06:04:14.748Z,1017.57
2017-08-15T06:04:55.648Z,1017.54
2017-08-15T06:05:36.515Z,1017.52
2017-08-15T06:06:17.400Z,1017.52
2017-08-15T06:06:58.309Z,1017.5
2017-08-15T06:07:39.209Z,1017.46
2017-08-15T06:08:20.106Z,1017.51
2017-08-15T06:09:01.009Z,1017.48
2017-08-15T06:09:41.867Z,1017.47
2017-08-15T06:10:22.758Z,1017.45
2017-08-15T06:11:03.654Z,1017.5
2017-08-15T06:11:44.560Z,1017.46
2017-08-15T06:12:25.432Z,1017.44
2017-08-15T06:13:06.330Z,1017.43
2017-08-15T06:13:47.223Z,1017.45
2017-08-15T06:14:28.096Z,1017.39
2017-08-15T06:15:09.000Z,1017.44
2017-08-15T06:15:49.873Z,1017.4
2017-08-15T06:16:30.753Z,1017.38
2017-08-15T06:17:11.649Z,1017.37
2017-08-15T06:17:52.536Z,1017.4
2017-08-15T06:18:33.429Z,1017.38
2017-08-15T06:19:14.294Z,1017.42
2017-08-15T06:19:55.155Z,1017.37
2017-08-15T06:20:36.032Z,1017.4
2017-08-15T06:21:16.936Z,1017.37
2017-08-15T06:21:57.823Z,1017.35
2017-08-15T06:22:38.709Z,1017.35
2017-08-15T06:23:19.598Z,1017.34
2017-08-15T06:24:00.516Z,1017.31
2017-08-15T06:24:41.360Z,1017.33
2017-08-15T06:25:22.238Z,1017.3
2017-08-15T06:26:03.137Z,1017.3
2017-08-15T06:26:44.015Z,1017.29
2017-08-15T06:27:24.902Z,1017.26
2017-08-15T06:28:05.759Z,1017.25
2017-08-15T06:28:46.645Z,1017.27
2017-08-15T06:29:27.560Z,1017.26
2017-08-15T06:30:08.417Z,1017.25
2017-08-15T06:30:49.295Z,1017.23
2017-08-15T06:31:30.183Z,1017.22
2017-08-15T06:32:11.058Z,1017.24
2017-08-15T06:32:51.952Z,1017.21
2017-08-15T06:33:32.815Z,1017.25
2017-08-15T06:34:13.681Z,1017.21
2017-08-15T06:34:54.585Z,1017.22
2017-08-15T06:35:35.487Z,1017.21
2017-08-15T06:36:16.385Z,1017.24
2017-08-15T06:36:57.274Z,1017.28
2017-08-15T06:37:38.162Z,1017.23
2017-08-15T06:38:19.041Z,1017.24
2017-08-15T06:38:59.921Z,1017.25
2017-08-15T06:39:40.823Z,1017.23
2017-08-15T06:40:21.697Z,1017.25
2017-08-15T06:41:02.580Z,1017.27
2017-08-15T06:41:43.482Z,1017.28
2017-08-15T06:42:24.367Z,1017.21
2017-08-15T06:43:05.245Z,1017.2
2017-08-15T06:43:46.113Z,1017.21
2017-08-15T06:44:26.999Z,1017.23
2017-08-15T06:45:07.903Z,1017.24
2017-08-15T06:45:48.788Z,1017.22
2017-08-15T06:46:29.690Z,1017.23
2017-08-15T06:47:10.578Z,1017.22
2017-08-15T06:47:51.447Z,1017.24
2017-08-15T06:48:32.342Z,1017.21
2017-08-15T06:49:13.231Z,1017.23
2017-08-15T06:49:54.114Z,1017.2
2017-08-15T06:50:35.006Z,1017.23
2017-08-15T06:51:15.924Z,1017.21
2017-08-15T06:51:56.812Z,1017.2
2017-08-15T06:52:37.690Z,1017.21
2017-08-15T06:53:18.631Z,1017.18
2017-08-15T06:53:59.484Z,1017.17
2017-08-15T06:54:40.369Z,1017.21
2017-08-15T06:55:21.338Z,1017.14
2017-08-15T06:56:02.266Z,1017.15
2017-08-15T06:56:43.159Z,1017.15
2017-08-15T06:57:24.053Z,1017.11
2017-08-15T06:58:04.931Z,1017.11
2017-08-15T06:58:45.812Z,1017.14
2017-08-15T06:59:26.711Z,1017.1
2017-08-15T07:00:07.589Z,1017.09
2017-08-15T07:00:48.481Z,1017.07
2017-08-15T07:01:29.358Z,1017.08
2017-08-15T07:02:10.262Z,1017.07
2017-08-15T07:02:51.154Z,1017.04
2017-08-15T07:03:32.033Z,1017.02
2017-08-15T07:04:12.930Z,1017.03
2017-08-15T07:04:53.812Z,1016.99
2017-08-15T07:05:34.690Z,1016.97
2017-08-15T07:06:15.621Z,1016.98
2017-08-15T07:06:56.514Z,1016.96
2017-08-15T07:07:37.411Z,1016.96
2017-08-15T07:08:18.300Z,1016.95
2017-08-15T07:08:59.193Z,1016.88
2017-08-15T07:09:40.087Z,1016.93
2017-08-15T07:10:20.978Z,1016.85
2017-08-15T07:11:01.860Z,1016.89
2017-08-15T07:11:42.761Z,1016.9
2017-08-15T07:12:23.653Z,1016.87
2017-08-15T07:13:04.556Z,1016.81
2017-08-15T07:13:45.446Z,1016.84
2017-08-15T07:14:26.338Z,1016.84
2017-08-15T07:15:07.242Z,1016.86
2017-08-15T07:15:48.140Z,1016.84
2017-08-15T07:16:29.035Z,1016.84
2017-08-15T07:17:09.933Z,1016.82
2017-08-15T07:17:50.826Z,1016.81
2017-08-15T07:18:31.732Z,1016.87
2017-08-15T07:19:12.626Z,1016.83
2017-08-15T07:19:53.523Z,1016.81
2017-08-15T07:20:34.432Z,1016.84
2017-08-15T07:21:15.322Z,1016.87
2017-08-15T07:21:56.206Z,1016.86
2017-08-15T07:22:37.111Z,1016.83
2017-08-15T07:23:18.005Z,1016.85
2017-08-15T07:23:58.894Z,1016.87
2017-08-15T07:24:39.803Z,1016.8
2017-08-15T07:25:20.691Z,1016.83
2017-08-15T07:26:01.593Z,1016.8
2017-08-15T07:26:42.496Z,1016.82
2017-08-15T07:27:23.397Z,1016.82
2017-08-15T07:28:04.289Z,1016.84
2017-08-15T07:28:45.170Z,1016.82
2017-08-15T07:29:26.078Z,1016.77
2017-08-15T07:30:06.976Z,1016.79
2017-08-15T07:30:47.844Z,1016.8
2017-08-15T07:31:28.728Z,1016.78
2017-08-15T07:32:09.631Z,1016.78
2017-08-15T07:32:50.528Z,1016.79
2017-08-15T07:33:31.470Z,1016.77
2017-08-15T07:34:12.373Z,1016.77
2017-08-15T07:34:53.299Z,1016.76
2017-08-15T07:35:34.190Z,1016.78
2017-08-15T07:36:15.087Z,1016.75
2017-08-15T07:36:55.982Z,1016.82
2017-08-15T07:37:36.912Z,1016.77
2017-08-15T07:38:17.801Z,1016.81
2017-08-15T07:38:58.718Z,1016.79
2017-08-15T07:39:39.612Z,1016.79
2017-08-15T07:40:20.521Z,1016.77
2017-08-15T07:41:01.420Z,1016.77
2017-08-15T07:41:42.326Z,1016.79
2017-08-15T07:42:23.245Z,1016.82
2017-08-15T07:43:04.143Z,1016.83
2017-08-15T07:43:45.043Z,1016.82
2017-08-15T07:44:25.942Z,1016.82
2017-08-15T07:45:06.849Z,1016.77
2017-08-15T07:45:47.743Z,1016.74
2017-08-15T07:46:28.646Z,1016.72
2017-08-15T07:47:09.548Z,1016.73
2017-08-15T07:47:50.457Z,1016.73
2017-08-15T07:48:31.362Z,1016.73
2017-08-15T07:49:12.256Z,1016.72
2017-08-15T07:49:53.162Z,1016.69
2017-08-15T07:50:34.057Z,1016.7
2017-08-15T07:51:14.952Z,1016.69
2017-08-15T07:51:55.852Z,1016.7
2017-08-15T07:52:36.766Z,1016.68
2017-08-15T07:53:17.664Z,1016.7
2017-08-15T07:53:58.562Z,1016.65
2017-08-15T07:54:39.457Z,1016.69
2017-08-15T07:55:20.355Z,1016.66
2017-08-15T07:56:01.258Z,1016.61
2017-08-15T07:56:42.162Z,1016.6
2017-08-15T07:57:23.067Z,1016.62
2017-08-15T07:58:03.978Z,1016.57
2017-08-15T07:58:44.872Z,1016.58
2017-08-15T07:59:25.775Z,1016.6
2017-08-15T08:00:06.665Z,1016.6
2017-08-15T08:00:47.581Z,1016.64
2017-08-15T08:01:28.506Z,1016.53
2017-08-15T08:02:09.384Z,1016.59
2017-08-15T08:02:50.293Z,1016.58
2017-08-15T08:03:31.195Z,1016.56
2017-08-15T08:04:12.111Z,1016.6
2017-08-15T08:04:53.023Z,1016.62
2017-08-15T08:05:33.942Z,1016.59
2017-08-15T08:06:14.813Z,1016.55
2017-08-15T08:06:55.724Z,1016.55
2017-08-15T08:07:36.618Z,1016.6
2017-08-15T08:08:17.509Z,1016.52
2017-08-15T08:08:58.420Z,1016.51
2017-08-15T08:09:39.315Z,1016.55
2017-08-15T08:10:20.219Z,1016.55
2017-08-15T08:11:01.141Z,1016.52
2017-08-15T08:11:42.005Z,1016.54
2017-08-15T08:12:22.915Z,1016.51
2017-08-15T08:13:03.818Z,1016.49
2017-08-15T08:13:44.742Z,1016.53
2017-08-15T08:14:25.659Z,1016.53
2017-08-15T08:15:06.568Z,1016.52
2017-08-15T08:15:47.458Z,1016.52
2017-08-15T08:16:28.384Z,1016.46
2017-08-15T08:17:09.251Z,1016.45
2017-08-15T08:17:50.163Z,1016.52
2017-08-15T08:18:31.066Z,1016.48